Time;durP1;ratioP1;P1;durP2;ratioP2;P2;SDS_P1;SDS_P2;PMS_P1;PMS_P2;Temp;Humidity;BMP_temperature;BMP_pressure;BME280_temperature;BME280_humidity;BME280_pressure;Samples;Min_cycle;Max_cycle;Signal;HPM_P1;HPM_P2
2022/01/15 00:00:16;;;;;;;65.03;27.77;;;;;;;2.31;100.00;103245.81;4996468;28;20497;-53
2022/01/15 00:02:42;;;;;;;64.68;27.65;;;;;;;2.29;100.00;103236.97;4995962;28;20027;-53
2022/01/15 00:05:07;;;;;;;66.72;26.85;;;;;;;2.28;100.00;103248.91;4996275;28;20037;-52
2022/01/15 00:07:33;;;;;;;74.32;28.92;;;;;;;2.28;100.00;103238.00;4995990;28;20030;-54
2022/01/15 00:09:58;;;;;;;67.18;26.63;;;;;;;2.31;100.00;103232.16;4995300;28;20037;-53
2022/01/15 00:12:23;;;;;;;72.53;28.00;;;;;;;2.30;100.00;103230.47;4996505;28;20436;-56
2022/01/15 00:14:50;;;;;;;70.80;28.08;;;;;;;2.29;100.00;103229.59;4996918;28;20034;-54
2022/01/15 00:17:20;;;;;;;73.18;28.02;;;;;;;2.26;100.00;103221.81;4996108;28;20113;-53
2022/01/15 00:19:46;;;;;;;71.20;27.52;;;;;;;2.22;100.00;103219.66;4996345;28;20030;-53
2022/01/15 00:22:16;;;;;;;81.85;28.92;;;;;;;2.23;100.00;103213.13;4995840;28;20049;-53
2022/01/15 00:24:42;;;;;;;86.50;28.13;;;;;;;2.15;100.00;103219.56;4996438;28;20478;-51
2022/01/15 00:27:08;;;;;;;75.95;28.50;;;;;;;2.12;100.00;103214.47;4996510;28;20031;-53
2022/01/15 00:29:34;;;;;;;76.57;27.55;;;;;;;2.11;100.00;103226.44;4996178;28;20033;-53
2022/01/15 00:32:00;;;;;;;73.50;29.30;;;;;;;2.03;100.00;103214.56;4996610;28;20101;-53
2022/01/15 00:34:27;;;;;;;72.05;26.88;;;;;;;2.03;100.00;103220.03;4996154;28;20034;-51
2022/01/15 00:36:52;;;;;;;71.22;28.90;;;;;;;2.02;100.00;103217.50;4996575;28;20050;-55
2022/01/15 00:39:18;;;;;;;78.78;28.33;;;;;;;2.03;100.00;103220.03;4996307;28;20097;-53
2022/01/15 00:41:43;;;;;;;70.38;27.48;;;;;;;2.08;100.00;103213.19;4996064;28;20030;-53
2022/01/15 00:44:08;;;;;;;71.38;30.85;;;;;;;2.10;100.00;103209.22;4996265;28;20063;-53
2022/01/15 00:46:34;;;;;;;67.97;27.23;;;;;;;2.08;100.00;103205.81;4995085;28;20029;-52
2022/01/15 00:48:59;;;;;;;81.68;28.38;;;;;;;2.09;100.00;103204.78;4996014;28;20057;-53
2022/01/15 00:51:25;;;;;;;80.50;29.08;;;;;;;2.03;100.00;103198.19;4996241;28;20453;-54
2022/01/15 00:53:50;;;;;;;71.85;27.20;;;;;;;2.04;100.00;103193.56;4996053;28;20022;-52
2022/01/15 00:56:15;;;;;;;72.72;26.88;;;;;;;2.07;100.00;103181.44;4995937;28;20054;-50
2022/01/15 00:58:41;;;;;;;68.93;25.67;;;;;;;2.09;100.00;103182.06;4995778;28;20533;-51
2022/01/15 01:01:06;;;;;;;69.00;27.95;;;;;;;2.06;100.00;103179.75;4995948;28;20029;-52
2022/01/15 01:03:31;;;;;;;61.70;26.13;;;;;;;2.11;100.00;103191.78;4995385;28;20432;-53
2022/01/15 01:05:57;;;;;;;69.35;26.17;;;;;;;2.11;100.00;103191.78;4995126;28;20042;-53
2022/01/15 01:08:22;;;;;;;66.50;27.50;;;;;;;2.11;100.00;103188.19;4994925;28;20470;-53
2022/01/15 01:13:39;;;;;;;67.00;26.73;;;;;;;2.11;100.00;103169.06;4995457;28;20034;-51
2022/01/15 01:24:01;;;;;;;73.45;27.17;;;;;;;1.98;100.00;103164.31;4995232;28;20066;-49
2022/01/15 01:26:38;;;;;;;61.20;26.00;;;;;;;1.99;100.00;103166.84;4995851;28;20031;-51
2022/01/15 01:29:23;;;;;;;70.57;26.38;;;;;;;1.97;100.00;103166.22;4995397;28;20442;-51
2022/01/15 01:34:23;;;;;;;68.18;27.20;;;;;;;1.96;100.00;103164.50;4995118;28;20038;-52
2022/01/15 01:37:01;;;;;;;68.32;26.13;;;;;;;2.00;100.00;103164.97;4995318;28;20038;-51
2022/01/15 01:39:38;;;;;;;73.38;27.95;;;;;;;1.98;100.00;103159.72;4994866;28;20458;-52
2022/01/15 01:42:10;;;;;;;68.82;27.45;;;;;;;2.00;100.00;103160.34;4995261;28;20034;-52
2022/01/15 01:44:40;;;;;;;64.75;25.73;;;;;;;1.99;100.00;103149.63;4994595;28;20058;-49
2022/01/15 01:47:15;;;;;;;65.75;26.20;;;;;;;2.01;100.00;103151.13;4995010;28;20108;-53
2022/01/15 01:49:42;;;;;;;66.43;26.38;;;;;;;2.00;100.00;103154.06;4995113;28;20469;-54
2022/01/15 01:52:07;;;;;;;74.35;26.70;;;;;;;2.00;100.00;103165.81;4994606;28;20105;-52
2022/01/15 01:54:32;;;;;;;65.18;25.13;;;;;;;2.00;100.00;103154.06;4994932;28;20117;-54
2022/01/15 01:56:58;;;;;;;61.47;25.10;;;;;;;1.99;100.00;103150.47;4994656;28;20123;-54
2022/01/15 01:59:23;;;;;;;66.70;27.10;;;;;;;1.96;100.00;103147.25;4994528;28;20027;-50
2022/01/15 02:01:48;;;;;;;65.25;26.45;;;;;;;1.94;100.00;103141.16;4994183;28;20026;-51
2022/01/15 02:04:14;;;;;;;62.00;25.88;;;;;;;1.91;100.00;103133.34;4994485;28;20018;-52
2022/01/15 02:06:40;;;;;;;65.88;24.67;;;;;;;1.91;100.00;103127.91;4994709;28;20026;-54
2022/01/15 02:09:06;;;;;;;57.25;24.92;;;;;;;1.95;100.00;103140.97;4993926;28;20482;-51
2022/01/15 02:11:32;;;;;;;60.42;24.05;;;;;;;1.96;100.00;103133.63;4994353;28;20057;-51
2022/01/15 02:13:57;;;;;;;59.67;22.77;;;;;;;1.94;100.00;103136.56;4994187;28;20477;-51
2022/01/15 02:16:23;;;;;;;55.25;22.83;;;;;;;1.88;100.00;103134.59;4994784;28;20027;-54
2022/01/15 02:18:55;;;;;;;58.38;23.00;;;;;;;1.89;100.00;103149.06;4994334;28;20057;-54
2022/01/15 02:23:50;;;;;;;57.00;23.55;;;;;;;1.86;100.00;103129.31;4993931;28;20401;-54
2022/01/15 02:26:25;;;;;;;53.50;23.48;;;;;;;1.84;100.00;103119.63;4993937;28;20042;-53
2022/01/15 02:28:59;;;;;;;51.90;22.38;;;;;;;1.92;100.00;103130.44;4994568;28;20038;-54
2022/01/15 02:31:26;;;;;;;53.20;22.83;;;;;;;1.93;100.00;103128.56;4994242;28;20019;-50
2022/01/15 02:33:54;;;;;;;57.38;22.70;;;;;;;1.90;100.00;103124.31;4994139;28;20470;-54
2022/01/15 02:36:23;;;;;;;57.47;23.23;;;;;;;1.87;100.00;103109.16;4994324;28;20065;-54
2022/01/15 02:38:49;;;;;;;57.75;24.88;;;;;;;1.87;100.00;103116.53;4993755;28;20385;-50
2022/01/15 02:41:23;;;;;;;57.05;23.23;;;;;;;1.89;100.00;103110.84;4994070;28;20077;-51
2022/01/15 02:43:48;;;;;;;55.72;22.77;;;;;;;1.89;100.00;103119.03;4993978;28;20030;-54
2022/01/15 02:46:34;;;;;;;64.05;25.23;;;;;;;1.93;100.00;103115.75;4994098;28;20110;-54
2022/01/15 02:49:03;;;;;;;60.63;23.92;;;;;;;1.81;100.00;103093.56;4994040;28;20022;-53
2022/01/15 02:51:30;;;;;;;60.40;23.92;;;;;;;1.87;100.00;103094.69;4994321;28;20400;-54
2022/01/15 02:53:56;;;;;;;61.88;25.30;;;;;;;1.97;100.00;103102.56;4992998;28;20474;-54
2022/01/15 02:56:27;;;;;;;65.43;26.80;;;;;;;1.96;100.00;103092.66;4994220;28;20038;-53
2022/01/15 02:58:52;;;;;;;65.22;25.55;;;;;;;1.96;100.00;103088.06;4993988;28;20034;-51
2022/01/15 03:01:18;;;;;;;65.25;27.45;;;;;;;1.93;100.00;103071.22;4993918;28;20645;-54
2022/01/15 03:03:43;;;;;;;63.22;25.80;;;;;;;1.91;100.00;103071.41;4993321;28;20081;-51
2022/01/15 03:06:11;;;;;;;62.08;24.35;;;;;;;1.86;100.00;103069.25;4993600;28;20113;-50
2022/01/15 03:08:36;;;;;;;64.82;25.58;;;;;;;1.84;100.00;103074.06;4993745;28;20441;-50
2022/01/15 03:11:02;;;;;;;60.80;24.23;;;;;;;1.79;100.00;103067.50;4992796;28;20042;-49
2022/01/15 03:13:28;;;;;;;66.40;24.23;;;;;;;1.71;100.00;103063.00;4992613;28;20517;-52
2022/01/15 03:15:53;;;;;;;62.25;25.52;;;;;;;1.71;100.00;103061.09;4992725;28;20030;-47
2022/01/15 03:18:19;;;;;;;59.90;24.05;;;;;;;1.76;100.00;103063.25;4992811;28;20097;-48
2022/01/15 03:20:44;;;;;;;54.53;23.08;;;;;;;1.74;100.00;103056.31;4992957;28;20026;-49
2022/01/15 03:23:09;;;;;;;59.67;24.25;;;;;;;1.71;100.00;103047.47;4993445;28;20026;-50
2022/01/15 03:25:34;;;;;;;61.47;25.90;;;;;;;1.70;100.00;103042.19;4993231;28;20080;-51
2022/01/15 03:28:00;;;;;;;63.00;25.00;;;;;;;1.70;100.00;103043.03;4993361;28;20030;-50
2022/01/15 03:30:25;;;;;;;63.95;25.05;;;;;;;1.73;100.00;103044.56;4993462;28;20030;-51
2022/01/15 03:32:50;;;;;;;62.95;26.15;;;;;;;1.76;100.00;103040.59;4993109;28;20490;-52
2022/01/15 03:35:17;;;;;;;56.05;27.02;;;;;;;1.80;100.00;103042.75;4992684;28;20026;-54
2022/01/15 03:37:43;;;;;;;62.20;26.65;;;;;;;1.79;100.00;103051.97;4993130;28;20023;-52
2022/01/15 03:40:11;;;;;;;60.38;25.52;;;;;;;1.76;100.00;103041.41;4993339;28;20429;-51
2022/01/15 03:42:36;;;;;;;55.38;23.98;;;;;;;1.76;100.00;103035.97;4992899;28;20030;-51
2022/01/15 03:45:03;;;;;;;53.58;24.45;;;;;;;1.75;100.00;103028.81;4993172;28;20022;-53
2022/01/15 03:47:29;;;;;;;59.25;24.25;;;;;;;1.79;100.00;103032.03;4992846;28;20065;-50
2022/01/15 03:49:54;;;;;;;59.05;24.02;;;;;;;1.79;100.00;103037.47;4992831;28;20022;-54
2022/01/15 03:52:19;;;;;;;52.42;23.08;;;;;;;1.79;100.00;103035.59;4993636;28;20027;-54
2022/01/15 03:54:45;;;;;;;51.90;22.05;;;;;;;1.80;100.00;103040.00;4993020;28;20046;-52
2022/01/15 03:57:11;;;;;;;60.05;25.45;;;;;;;1.79;100.00;103041.03;4993111;28;20089;-50
2022/01/15 03:59:36;;;;;;;54.78;23.45;;;;;;;1.81;100.00;103030.78;4992681;28;20030;-52
2022/01/15 04:02:02;;;;;;;53.38;22.58;;;;;;;1.76;100.00;103035.13;4992797;28;20038;-53
2022/01/15 04:04:27;;;;;;;52.03;23.63;;;;;;;1.78;100.00;103031.16;4992856;28;20069;-54
2022/01/15 04:06:53;;;;;;;53.00;24.45;;;;;;;1.79;100.00;103021.94;4992573;28;20378;-50
2022/01/15 04:09:18;;;;;;;52.17;23.52;;;;;;;1.82;100.00;103015.25;4992703;28;20037;-51
2022/01/15 04:11:43;;;;;;;49.88;21.55;;;;;;;1.82;100.00;103020.69;4992933;28;20022;-51
2022/01/15 04:14:09;;;;;;;50.53;22.65;;;;;;;1.77;100.00;103015.81;4992432;28;20061;-50
2022/01/15 04:16:34;;;;;;;51.10;21.85;;;;;;;1.77;100.00;103006.81;4992724;28;20102;-50
2022/01/15 04:19:00;;;;;;;47.45;21.75;;;;;;;1.77;100.00;103009.53;4992653;28;20058;-50
2022/01/15 04:21:26;;;;;;;45.70;20.48;;;;;;;1.76;100.00;103005.13;4992792;28;20101;-52
2022/01/15 04:23:52;;;;;;;47.95;20.25;;;;;;;1.78;100.00;102997.59;4992830;28;20153;-52
2022/01/15 04:26:22;;;;;;;47.60;20.83;;;;;;;1.76;100.00;102996.91;4992944;28;20117;-49
2022/01/15 04:28:48;;;;;;;46.42;20.85;;;;;;;1.79;100.00;102999.28;4992572;28;20138;-50
2022/01/15 04:31:13;;;;;;;49.00;21.88;;;;;;;1.78;100.00;102987.50;4992545;28;20098;-50
2022/01/15 04:33:38;;;;;;;51.08;22.70;;;;;;;1.80;100.00;102984.56;4992949;28;20088;-50
2022/01/15 04:36:06;;;;;;;48.42;21.98;;;;;;;1.79;100.00;102972.81;4992780;28;20106;-53
2022/01/15 04:38:35;;;;;;;45.95;21.38;;;;;;;1.82;100.00;102977.03;4992808;28;20138;-54
2022/01/15 04:41:01;;;;;;;43.85;19.35;;;;;;;1.87;100.00;102985.50;4992894;28;20030;-53
2022/01/15 04:43:26;;;;;;;48.65;21.67;;;;;;;1.85;100.00;102979.38;4992580;28;20030;-51
2022/01/15 04:45:52;;;;;;;43.88;19.77;;;;;;;1.85;100.00;102984.84;4994683;28;20113;-52
2022/01/15 04:48:17;;;;;;;42.13;19.60;;;;;;;1.82;100.00;102977.03;4996080;28;20088;-54
2022/01/15 04:50:42;;;;;;;43.13;20.05;;;;;;;1.84;100.00;102980.41;4994924;28;20505;-53
2022/01/15 04:53:09;;;;;;;45.60;20.23;;;;;;;1.85;100.00;102982.13;4996391;28;20026;-55
2022/01/15 04:55:35;;;;;;;44.75;21.77;;;;;;;1.79;100.00;102980.16;4995819;28;20030;-54
2022/01/15 04:58:01;;;;;;;42.50;19.63;;;;;;;1.76;100.00;102978.66;4996118;28;20030;-55
2022/01/15 05:00:26;;;;;;;51.03;21.33;;;;;;;1.82;100.00;102972.44;4995582;28;20362;-54
2022/01/15 05:02:52;;;;;;;44.35;20.45;;;;;;;1.83;100.00;102978.72;4995914;28;20025;-52
2022/01/15 05:05:17;;;;;;;50.75;22.83;;;;;;;1.82;100.00;102963.38;4995807;28;20117;-54
2022/01/15 05:07:43;;;;;;;53.00;21.90;;;;;;;1.82;100.00;102963.38;4995930;28;20041;-54
2022/01/15 05:10:11;;;;;;;49.40;21.23;;;;;;;1.81;100.00;102961.69;4995896;28;20495;-52
2022/01/15 05:12:42;;;;;;;49.83;20.95;;;;;;;1.80;100.00;102960.88;4995908;28;20030;-53
2022/01/15 05:15:09;;;;;;;45.47;20.52;;;;;;;1.84;100.00;102969.50;4996026;28;20102;-54
2022/01/15 05:17:34;;;;;;;46.58;20.27;;;;;;;1.89;100.00;102967.03;4995525;28;20034;-51
2022/01/15 05:20:00;;;;;;;48.05;21.40;;;;;;;1.87;100.00;102960.94;4995552;28;20044;-49
2022/01/15 05:22:25;;;;;;;51.38;23.15;;;;;;;1.92;100.00;102955.72;4995020;28;20030;-49
2022/01/15 05:24:50;;;;;;;47.33;22.45;;;;;;;1.93;100.00;102945.66;4995618;28;20077;-51
2022/01/15 05:27:16;;;;;;;49.83;22.92;;;;;;;1.96;100.00;102948.84;4996007;28;20350;-50
2022/01/15 05:29:41;;;;;;;57.00;24.50;;;;;;;1.85;100.00;102931.09;4995790;28;20031;-51
2022/01/15 05:32:07;;;;;;;52.83;23.63;;;;;;;1.92;100.00;102933.88;4995309;28;20026;-50
2022/01/15 05:34:32;;;;;;;55.25;23.70;;;;;;;1.86;100.00;102931.94;4995345;28;20030;-53
2022/01/15 05:36:57;;;;;;;56.15;22.55;;;;;;;1.86;100.00;102934.69;4995509;28;20030;-51
2022/01/15 05:39:23;;;;;;;53.03;22.75;;;;;;;1.89;100.00;102930.69;4995473;28;20382;-52
2022/01/15 05:41:48;;;;;;;67.85;22.73;;;;;;;1.91;100.00;102940.38;4994199;28;20110;-51
2022/01/15 05:44:13;;;;;;;53.65;23.08;;;;;;;1.90;100.00;102922.31;4995156;28;20027;-50
2022/01/15 05:46:39;;;;;;;59.53;25.05;;;;;;;1.88;100.00;102924.41;4994705;28;20382;-53
2022/01/15 05:49:04;;;;;;;55.30;22.50;;;;;;;1.91;100.00;102917.72;4993445;28;20106;-53
2022/01/15 05:51:30;;;;;;;50.92;22.38;;;;;;;1.92;100.00;102917.50;4995104;28;20038;-49
2022/01/15 05:53:58;;;;;;;58.33;24.55;;;;;;;1.90;100.00;102905.09;4995073;28;20106;-51
2022/01/15 05:56:23;;;;;;;56.97;25.00;;;;;;;1.92;100.00;102905.75;4993617;28;20053;-52
2022/01/15 05:58:50;;;;;;;58.22;25.88;;;;;;;1.92;100.00;102906.59;4994509;28;20050;-49
2022/01/15 06:01:15;;;;;;;58.72;26.30;;;;;;;1.92;100.00;102903.03;4994703;28;20072;-51
2022/01/15 06:03:41;;;;;;;57.97;24.90;;;;;;;1.95;100.00;102898.00;4993965;28;20371;-50
2022/01/15 06:06:06;;;;;;;56.35;23.55;;;;;;;1.99;100.00;102896.56;4994798;28;20128;-54
2022/01/15 06:08:31;;;;;;;61.85;25.23;;;;;;;2.00;100.00;102902.88;4994411;28;20490;-53
2022/01/15 06:10:56;;;;;;;56.28;24.92;;;;;;;1.99;100.00;102895.72;4994265;28;20034;-54
2022/01/15 06:13:22;;;;;;;56.90;24.70;;;;;;;1.99;100.00;102898.44;4994214;28;20470;-50
2022/01/15 06:15:47;;;;;;;54.30;24.88;;;;;;;1.96;100.00;102891.50;4994690;28;20034;-54
2022/01/15 06:18:12;;;;;;;60.40;25.58;;;;;;;1.94;100.00;102899.03;4994065;28;20018;-53
2022/01/15 06:20:38;;;;;;;51.53;23.63;;;;;;;1.94;100.00;102904.50;4994188;28;20026;-52
2022/01/15 06:23:04;;;;;;;56.25;25.00;;;;;;;1.92;100.00;102892.94;4994275;28;20460;-52
2022/01/15 06:25:29;;;;;;;60.08;26.85;;;;;;;1.91;100.00;102898.59;4994229;28;20105;-51
2022/01/15 06:27:54;;;;;;;59.10;25.88;;;;;;;1.89;100.00;102893.31;4994418;28;20390;-52
2022/01/15 06:30:20;;;;;;;58.45;27.67;;;;;;;1.89;100.00;102885.13;4994115;28;20497;-52
2022/01/15 06:32:45;;;;;;;59.88;25.15;;;;;;;1.86;100.00;102880.09;4993604;28;20084;-51
2022/01/15 06:35:13;;;;;;;59.65;23.98;;;;;;;1.84;100.00;102883.00;4993458;28;20023;-53
2022/01/15 06:37:39;;;;;;;55.40;24.08;;;;;;;1.83;100.00;102880.47;4994022;28;20035;-51
2022/01/15 06:40:06;;;;;;;54.58;24.23;;;;;;;1.77;100.00;102876.63;4994108;28;20486;-52
2022/01/15 06:42:31;;;;;;;66.05;26.75;;;;;;;1.76;100.00;102869.50;4994363;28;20030;-54
2022/01/15 06:44:56;;;;;;;55.38;25.27;;;;;;;1.78;100.00;102882.97;4993923;28;20092;-53
2022/01/15 06:47:22;;;;;;;57.97;23.77;;;;;;;1.75;100.00;102877.88;4994212;28;20105;-51
2022/01/15 06:49:47;;;;;;;48.95;21.95;;;;;;;1.75;100.00;102873.25;4994353;28;20033;-53
2022/01/15 06:52:12;;;;;;;58.92;23.65;;;;;;;1.69;100.00;102874.91;4994431;28;20022;-52
2022/01/15 06:54:38;;;;;;;64.25;24.35;;;;;;;1.70;100.00;102875.75;4992850;28;20084;-54
2022/01/15 06:57:03;;;;;;;61.97;23.73;;;;;;;1.66;100.00;102869.84;4993858;28;20054;-52
2022/01/15 06:59:28;;;;;;;60.17;22.50;;;;;;;1.59;100.00;102868.94;4994513;28;20038;-51
2022/01/15 07:01:54;;;;;;;58.58;23.67;;;;;;;1.60;100.00;102872.50;4993935;28;20034;-54
2022/01/15 07:04:19;;;;;;;57.38;23.10;;;;;;;1.61;100.00;102860.56;4993737;28;20027;-54
2022/01/15 07:06:44;;;;;;;57.38;23.40;;;;;;;1.62;100.00;102864.97;4993790;28;20018;-52
2022/01/15 07:09:09;;;;;;;57.78;24.48;;;;;;;1.63;100.00;102863.94;4993476;28;20474;-54
2022/01/15 07:11:35;;;;;;;60.10;26.08;;;;;;;1.63;100.00;102862.03;4992599;28;20096;-52
2022/01/15 07:14:00;;;;;;;62.85;25.10;;;;;;;1.66;100.00;102866.25;4993476;28;20037;-52
2022/01/15 07:16:25;;;;;;;68.40;25.65;;;;;;;1.64;100.00;102866.47;4992705;28;20037;-51
2022/01/15 07:18:51;;;;;;;70.05;26.38;;;;;;;1.64;100.00;102882.00;4993063;28;20058;-51
2022/01/15 07:21:16;;;;;;;72.22;25.67;;;;;;;1.63;100.00;102885.75;4992800;28;20061;-53
2022/01/15 07:23:41;;;;;;;62.28;25.17;;;;;;;1.64;100.00;102880.09;4993067;28;20026;-51
2022/01/15 07:26:06;;;;;;;64.72;25.55;;;;;;;1.65;100.00;102870.03;4992782;28;20034;-54
2022/01/15 07:28:32;;;;;;;59.38;24.52;;;;;;;1.64;100.00;102877.38;4993309;28;20029;-53
2022/01/15 07:30:58;;;;;;;69.93;23.92;;;;;;;1.63;100.00;102877.56;4993425;28;20065;-54
2022/01/15 07:33:24;;;;;;;59.30;25.65;;;;;;;1.62;100.00;102874.00;4993697;28;20034;-55
2022/01/15 07:35:50;;;;;;;71.03;25.10;;;;;;;1.55;100.00;102879.41;4993596;28;20019;-54
2022/01/15 07:38:17;;;;;;;65.82;24.40;;;;;;;1.49;100.00;102865.69;4993704;28;20034;-54
2022/01/15 07:40:43;;;;;;;78.53;26.02;;;;;;;1.49;100.00;102869.25;4993600;28;20071;-53
2022/01/15 07:43:09;;;;;;;63.13;23.73;;;;;;;1.46;100.00;102866.06;4993833;28;20038;-54
2022/01/15 07:45:35;;;;;;;56.47;24.65;;;;;;;1.45;100.00;102869.84;4993531;28;20081;-54
2022/01/15 07:48:00;;;;;;;63.42;27.20;;;;;;;1.42;100.00;102873.81;4993696;28;20532;-51
2022/01/15 07:50:25;;;;;;;65.80;26.23;;;;;;;1.41;100.00;102883.03;4993501;28;20113;-52
2022/01/15 07:52:56;;;;;;;66.15;27.15;;;;;;;1.45;100.00;102884.34;4993611;28;20474;-53
2022/01/15 07:55:22;;;;;;;67.68;25.88;;;;;;;1.50;100.00;102879.13;4994055;28;20033;-52
2022/01/15 07:57:48;;;;;;;60.72;23.30;;;;;;;1.48;100.00;102883.09;4993623;28;20046;-53
2022/01/15 08:00:15;;;;;;;60.95;23.88;;;;;;;1.43;100.00;102882.81;4993608;28;20385;-52
2022/01/15 08:02:41;;;;;;;61.85;23.80;;;;;;;1.37;100.00;102882.56;4993406;28;20034;-54
2022/01/15 08:05:08;;;;;;;58.72;21.80;;;;;;;1.37;100.00;102879.00;4993489;28;20109;-54
2022/01/15 08:07:33;;;;;;;55.70;21.35;;;;;;;1.35;100.00;102870.19;4993212;28;20045;-53
2022/01/15 08:09:58;;;;;;;48.45;19.17;;;;;;;1.36;100.00;102869.13;4993354;28;20027;-53
2022/01/15 08:12:23;;;;;;;48.75;17.23;;;;;;;1.42;100.00;102867.53;4993417;28;20113;-54
2022/01/15 08:14:55;;;;;;;47.65;16.67;;;;;;;1.35;100.00;102859.25;4993442;28;20033;-50
2022/01/15 08:17:20;;;;;;;58.88;18.90;;;;;;;1.31;100.00;102861.53;4993012;28;20034;-53
2022/01/15 08:19:45;;;;;;;63.25;19.35;;;;;;;1.26;100.00;102868.63;4993353;28;20022;-53
2022/01/15 08:22:10;;;;;;;57.83;18.33;;;;;;;1.20;100.00;102862.03;4995208;28;20037;-52
2022/01/15 08:24:36;;;;;;;44.85;17.40;;;;;;;1.13;100.00;102859.25;4996342;28;20034;-53
2022/01/15 08:27:01;;;;;;;40.70;15.45;;;;;;;1.17;100.00;102865.16;4996077;28;20025;-53
2022/01/15 08:29:27;;;;;;;45.70;17.13;;;;;;;1.15;100.00;102861.75;4995809;28;20045;-53
2022/01/15 08:31:52;;;;;;;57.08;17.73;;;;;;;1.12;100.00;102873.06;4996213;28;20493;-53
2022/01/15 08:34:17;;;;;;;40.03;17.23;;;;;;;1.15;100.00;102865.34;4995943;28;20030;-51
2022/01/15 08:36:42;;;;;;;54.03;17.83;;;;;;;1.15;100.00;102868.06;4995833;28;20101;-54
2022/01/15 08:39:08;;;;;;;48.22;18.08;;;;;;;1.19;100.00;102865.81;4995876;28;20058;-54
2022/01/15 08:41:34;;;;;;;42.75;19.50;;;;;;;1.17;100.00;102876.06;4997808;28;20038;-52
2022/01/15 08:44:00;;;;;;;44.22;19.73;;;;;;;1.19;100.00;102876.72;4995610;28;20034;-51
2022/01/15 08:46:25;;;;;;;46.63;20.77;;;;;;;1.19;100.00;102883.00;4996097;28;20363;-52
2022/01/15 08:48:51;;;;;;;59.20;20.20;;;;;;;1.14;100.00;102871.84;4995996;28;20033;-53
2022/01/15 08:51:16;;;;;;;55.90;21.00;;;;;;;1.17;100.00;102873.31;4996040;28;20093;-55
2022/01/15 08:53:42;;;;;;;76.88;22.85;;;;;;;1.24;100.00;102875.09;4995710;28;20029;-51
2022/01/15 08:56:07;;;;;;;62.33;22.63;;;;;;;1.24;100.00;102874.25;4994183;28;20043;-53
2022/01/15 08:58:33;;;;;;;43.22;19.23;;;;;;;1.25;100.00;102867.75;4995632;28;20092;-51
2022/01/15 09:00:58;;;;;;;87.63;21.20;;;;;;;1.17;100.00;102873.31;4995905;28;20339;-52
2022/01/15 09:03:24;;;;;;;58.88;19.27;;;;;;;1.12;100.00;102871.19;4996074;28;20027;-54
2022/01/15 09:05:50;;;;;;;55.90;19.30;;;;;;;1.08;100.00;102870.72;4996217;28;20060;-51
2022/01/15 09:08:17;;;;;;;52.90;18.48;;;;;;;1.08;100.00;102872.63;4996192;28;20152;-53
2022/01/15 09:10:42;;;;;;;51.78;19.20;;;;;;;1.05;100.00;102868.38;4995523;28;20027;-53
2022/01/15 09:13:11;;;;;;;39.85;16.10;;;;;;;1.04;100.00;102874.84;4995849;28;20076;-52
2022/01/15 09:15:37;;;;;;;39.15;17.50;;;;;;;1.07;100.00;102862.75;4995917;28;20385;-52
2022/01/15 09:18:03;;;;;;;48.25;16.67;;;;;;;1.05;100.00;102862.09;4986429;28;20038;-52
2022/01/15 09:20:28;;;;;;;47.28;16.77;;;;;;;1.10;100.00;102865.06;4975505;28;20063;-51
2022/01/15 09:22:54;;;;;;;40.58;17.15;;;;;;;1.08;100.00;102864.44;4975868;28;20502;-50
2022/01/15 09:25:19;;;;;;;48.33;17.02;;;;;;;1.11;100.00;102861.31;4976018;28;20031;-51
2022/01/15 09:30:30;;;;;;;55.45;17.17;;;;;;;1.08;100.00;102848.09;4980209;28;20109;-51
2022/01/15 09:32:55;;;;;;;35.53;15.13;;;;;;;1.06;100.00;102841.97;4979165;28;20031;-51
2022/01/15 09:35:24;;;;;;;41.22;16.33;;;;;;;1.03;100.00;102832.31;4995130;28;20026;-52
2022/01/15 09:37:51;;;;;;;43.90;17.75;;;;;;;1.12;100.00;102840.38;4994981;28;20034;-51
2022/01/15 09:40:19;;;;;;;44.88;18.08;;;;;;;1.10;100.00;102837.81;4995556;28;20030;-50
2022/01/15 09:42:47;;;;;;;46.72;17.50;;;;;;;1.12;100.00;102837.63;4995284;28;20406;-50
2022/01/15 09:45:13;;;;;;;40.10;18.15;;;;;;;1.17;100.00;102838.75;4995348;28;20547;-53
2022/01/15 09:47:39;;;;;;;42.85;16.85;;;;;;;1.17;100.00;102846.94;4995837;28;20037;-54
2022/01/15 09:50:07;;;;;;;35.80;16.75;;;;;;;1.15;100.00;102837.22;4994955;28;20062;-51
2022/01/15 09:52:33;;;;;;;34.92;16.23;;;;;;;1.24;100.00;102828.75;4995074;28;20027;-51
2022/01/15 09:55:00;;;;;;;35.40;16.85;;;;;;;1.28;100.00;102831.06;4995226;28;20023;-51
2022/01/15 09:57:25;;;;;;;34.83;15.52;;;;;;;1.33;100.00;102834.91;4994955;28;20464;-55
2022/01/15 09:59:51;;;;;;;33.92;15.63;;;;;;;1.37;100.00;102829.94;4995094;28;20109;-51
2022/01/15 10:02:16;;;;;;;33.90;16.27;;;;;;;1.32;100.00;102833.25;4994970;28;20124;-52
2022/01/15 10:04:42;;;;;;;38.88;17.73;;;;;;;1.36;100.00;102822.78;4994549;28;20429;-51
2022/01/15 10:07:09;;;;;;;34.88;16.60;;;;;;;1.45;100.00;102829.78;4994529;28;20034;-51
2022/01/15 10:09:35;;;;;;;36.03;16.98;;;;;;;1.47;100.00;102837.75;4994477;28;20022;-52
2022/01/15 10:12:00;;;;;;;42.42;19.25;;;;;;;1.39;100.00;102838.72;4994501;28;20053;-51
2022/01/15 10:14:31;;;;;;;42.50;17.52;;;;;;;1.29;100.00;102830.03;4994772;28;20070;-49
2022/01/15 10:17:00;;;;;;;45.80;21.08;;;;;;;1.39;100.00;102841.47;4995033;28;20027;-50
2022/01/15 10:19:32;;;;;;;77.95;23.55;;;;;;;1.29;100.00;102833.63;4994654;28;20033;-51
2022/01/15 10:22:13;;;;;;;40.85;18.20;;;;;;;1.29;100.00;102836.34;4994185;28;20050;-53
2022/01/15 10:24:41;;;;;;;42.70;18.85;;;;;;;1.23;100.00;102848.88;4994276;28;20041;-49
2022/01/15 10:27:29;;;;;;;43.08;18.67;;;;;;;1.21;100.00;102847.38;4994136;28;20074;-54
2022/01/15 10:30:01;;;;;;;42.20;18.98;;;;;;;1.16;100.00;102845.22;4993295;28;20027;-53
2022/01/15 10:32:29;;;;;;;44.13;21.05;;;;;;;1.19;100.00;102833.91;4991830;28;20034;-53
2022/01/15 10:34:56;;;;;;;40.15;20.45;;;;;;;1.29;100.00;102835.47;4994054;28;20080;-52
2022/01/15 10:37:34;;;;;;;40.53;19.27;;;;;;;1.26;100.00;102817.63;4993522;28;20466;-51
2022/01/15 10:40:06;;;;;;;42.28;20.35;;;;;;;1.32;100.00;102822.31;4993747;28;20367;-52
2022/01/15 10:42:32;;;;;;;43.33;20.00;;;;;;;1.37;100.00;102817.13;4990965;28;20045;-53
2022/01/15 10:45:00;;;;;;;44.67;21.13;;;;;;;1.38;100.00;102813.34;4993983;28;20497;-51
2022/01/15 10:47:28;;;;;;;42.70;21.40;;;;;;;1.42;100.00;102819.25;4995019;28;20026;-52
2022/01/15 10:49:58;;;;;;;40.67;19.75;;;;;;;1.45;100.00;102818.00;5003201;28;20026;-53
2022/01/15 10:52:25;;;;;;;45.47;21.38;;;;;;;1.47;100.00;102813.22;4991216;28;20456;-53
2022/01/15 10:55:27;;;;;;;48.17;20.95;;;;;;;1.47;100.00;102814.03;4993250;28;20026;-55
2022/01/15 10:57:58;;;;;;;46.67;20.70;;;;;;;1.41;100.00;102812.09;4980001;28;20541;-53
2022/01/15 11:00:46;;;;;;;44.08;20.83;;;;;;;1.34;100.00;102812.03;4993607;28;20034;-52
2022/01/15 11:03:14;;;;;;;40.47;19.20;;;;;;;1.28;100.00;102801.94;4993661;28;20022;-54
2022/01/15 11:05:39;;;;;;;44.70;21.65;;;;;;;1.37;100.00;102805.38;4993739;28;20088;-54
2022/01/15 11:08:06;;;;;;;42.53;20.38;;;;;;;1.42;100.00;102802.06;4992185;28;20030;-54
2022/01/15 11:10:48;;;;;;;43.58;20.45;;;;;;;1.41;100.00;102787.56;4993858;28;20470;-55
2022/01/15 11:13:16;;;;;;;46.20;20.85;;;;;;;1.48;100.00;102793.09;4993797;28;20026;-52
2022/01/15 11:15:44;;;;;;;46.10;21.35;;;;;;;1.47;100.00;102791.38;4993324;28;20022;-54
2022/01/15 11:18:21;;;;;;;44.60;21.35;;;;;;;1.51;100.00;102787.25;4993752;28;20035;-52
2022/01/15 11:20:58;;;;;;;45.65;21.95;;;;;;;1.52;100.00;102791.63;4993826;28;20085;-53
2022/01/15 11:23:25;;;;;;;42.67;20.75;;;;;;;1.59;100.00;102792.56;4993601;28;20081;-52
2022/01/15 11:25:53;;;;;;;47.13;21.77;;;;;;;1.63;100.00;102782.91;4993391;28;20034;-50